Time;durP1;ratioP1;P1;durP2;ratioP2;P2;SDS_P1;SDS_P2;PMS_P1;PMS_P2;Temp;Humidity;BMP_temperature;BMP_pressure;BME280_temperature;BME280_humidity;BME280_pressure;Samples;Min_cycle;Max_cycle;Signal;HPM_P1;HPM_P2
2023/06/02 00:03:18;;;;;;;1.30;1.30;;;23.60;54.40;;;;;;222845;1268;22508;-55
2023/06/02 00:08:23;;;;;;;1.60;1.50;;;23.60;54.40;;;;;;222572;1260;23874;-53
2023/06/02 00:13:28;;;;;;;1.40;1.30;;;23.60;54.40;;;;;;222636;1268;22515;-52
2023/06/02 00:18:33;;;;;;;1.50;1.30;;;23.60;54.00;;;;;;222659;1266;24433;-52
2023/06/02 00:23:37;;;;;;;1.70;1.40;;;23.50;54.50;;;;;;222788;1265;24207;-54
2023/06/02 00:28:42;;;;;;;1.40;1.30;;;23.60;54.40;;;;;;222363;1268;22505;-56
2023/06/02 00:33:46;;;;;;;1.80;1.60;;;23.50;54.40;;;;;;222242;1269;22726;-53
2023/06/02 00:38:51;;;;;;;1.40;1.30;;;23.50;54.40;;;;;;222390;1268;23231;-52
2023/06/02 00:43:56;;;;;;;1.60;1.50;;;23.50;54.40;;;;;;222215;1268;22514;-52
2023/06/02 00:49:00;;;;;;;1.50;1.40;;;23.50;54.80;;;;;;222145;1269;24239;-52
2023/06/02 00:54:06;;;;;;;1.80;1.50;;;23.50;54.50;;;;;;221973;1268;23949;-53
2023/06/02 00:59:11;;;;;;;1.30;1.30;;;23.50;54.50;;;;;;222334;1266;24319;-52
2023/06/02 01:04:18;;;;;;;1.80;1.50;;;23.50;54.50;;;;;;222111;1269;25262;-53
2023/06/02 01:09:23;;;;;;;1.50;1.40;;;23.40;54.50;;;;;;222394;1269;22504;-55
2023/06/02 01:14:28;;;;;;;1.60;1.50;;;23.40;54.80;;;;;;222368;1269;24220;-52
2023/06/02 01:19:35;;;;;;;1.60;1.50;;;23.40;54.50;;;;;;222411;1265;22610;-52
2023/06/02 01:24:40;;;;;;;1.40;1.30;;;23.40;55.00;;;;;;222496;1269;22792;-55
2023/06/02 01:29:45;;;;;;;1.60;1.50;;;23.40;54.30;;;;;;222367;1268;22512;-54
2023/06/02 01:35:12;;;;;;;1.90;1.80;;;23.40;54.70;;;;;;222280;1269;22515;-55
2023/06/02 01:40:18;;;;;;;2.00;1.90;;;23.40;54.70;;;;;;222148;1247;22524;-55
2023/06/02 01:45:24;;;;;;;1.40;1.30;;;23.40;54.30;;;;;;222374;1269;22507;-52
2023/06/02 01:50:29;;;;;;;1.70;1.60;;;23.40;54.30;;;;;;222131;1269;22510;-53
2023/06/02 01:55:34;;;;;;;1.70;1.60;;;23.40;54.30;;;;;;222169;1266;25364;-52
2023/06/02 02:00:38;;;;;;;1.80;1.70;;;23.40;54.20;;;;;;222255;1267;24242;-53
2023/06/02 02:05:43;;;;;;;1.60;1.50;;;23.40;54.10;;;;;;222222;1269;22633;-55
2023/06/02 02:10:48;;;;;;;1.70;1.40;;;23.40;54.10;;;;;;222004;1269;485546;-54
2023/06/02 02:15:52;;;;;;;1.50;1.40;;;23.40;53.90;;;;;;222067;1269;22595;-51
2023/06/02 02:20:57;;;;;;;1.80;1.70;;;23.40;53.90;;;;;;222258;1269;22523;-54
2023/06/02 02:26:01;;;;;;;1.80;1.70;;;23.40;53.70;;;;;;222229;1268;22592;-53
2023/06/02 02:31:06;;;;;;;1.70;1.60;;;23.50;53.70;;;;;;222216;1262;22530;-50
2023/06/02 02:36:11;;;;;;;1.70;1.60;;;23.50;54.20;;;;;;222364;1268;22566;-50
2023/06/02 02:41:16;;;;;;;1.60;1.50;;;23.50;53.70;;;;;;222569;1268;23929;-53
2023/06/02 02:46:20;;;;;;;1.90;1.70;;;23.40;53.70;;;;;;222628;1266;22560;-50
2023/06/02 02:51:25;;;;;;;1.50;1.40;;;23.50;53.70;;;;;;222537;1268;22908;-54
2023/06/02 02:56:32;;;;;;;1.60;1.50;;;23.40;54.00;;;;;;222553;1268;22510;-49
2023/06/02 03:01:40;;;;;;;1.70;1.60;;;23.40;54.00;;;;;;222463;1268;24229;-53
2023/06/02 03:06:48;;;;;;;1.70;1.60;;;23.50;53.60;;;;;;222336;1266;25303;-54
2023/06/02 03:11:54;;;;;;;1.90;1.70;;;23.40;53.80;;;;;;222656;1268;25316;-53
2023/06/02 03:16:58;;;;;;;1.60;1.50;;;23.40;53.70;;;;;;222407;1268;22525;-53
2023/06/02 03:22:05;;;;;;;1.80;1.70;;;23.30;53.70;;;;;;222694;1250;25480;-51
2023/06/02 03:27:13;;;;;;;1.70;1.60;;;23.30;53.80;;;;;;222426;1268;26603;-53
2023/06/02 03:32:22;;;;;;;1.40;1.30;;;23.30;53.80;;;;;;222628;1266;22511;-56
2023/06/02 03:37:27;;;;;;;1.80;1.70;;;23.30;53.80;;;;;;222479;1268;25202;-53
2023/06/02 03:42:32;;;;;;;1.60;1.50;;;23.30;53.80;;;;;;222543;1268;22646;-57
2023/06/02 03:47:37;;;;;;;1.90;1.80;;;23.20;53.80;;;;;;222426;1268;22514;-54
2023/06/02 03:52:44;;;;;;;1.70;1.60;;;23.30;54.10;;;;;;222351;1268;25211;-56
2023/06/02 03:57:49;;;;;;;1.70;1.60;;;23.20;53.90;;;;;;222343;1268;22508;-51
2023/06/02 04:02:55;;;;;;;1.80;1.70;;;23.20;53.90;;;;;;222699;1265;25155;-50
2023/06/02 04:08:00;;;;;;;1.60;1.50;;;23.30;54.10;;;;;;222579;1268;24289;-52
2023/06/02 04:13:04;;;;;;;1.70;1.60;;;23.20;53.70;;;;;;222316;1268;26506;-51
2023/06/02 04:18:12;;;;;;;1.90;1.70;;;23.20;53.70;;;;;;222516;1268;25326;-53
2023/06/02 04:23:16;;;;;;;1.70;1.60;;;23.20;53.70;;;;;;222610;1268;24184;-51
2023/06/02 04:28:21;;;;;;;1.80;1.70;;;23.20;53.60;;;;;;222818;1268;22506;-52
2023/06/02 04:33:26;;;;;;;1.90;1.80;;;23.20;54.00;;;;;;222278;1269;22511;-49
2023/06/02 04:38:31;;;;;;;1.80;1.70;;;23.20;53.90;;;;;;222496;1269;25562;-52
2023/06/02 04:43:36;;;;;;;1.70;1.60;;;23.20;53.50;;;;;;222302;1269;23881;-54
2023/06/02 04:48:41;;;;;;;1.40;1.40;;;23.30;53.40;;;;;;222261;1269;22514;-55
2023/06/02 04:53:46;;;;;;;2.40;2.20;;;23.30;53.60;;;;;;222205;1269;22628;-52
2023/06/02 04:58:51;;;;;;;2.00;1.90;;;23.30;53.30;;;;;;222490;1268;22639;-55
2023/06/02 05:03:56;;;;;;;1.60;1.50;;;23.30;53.30;;;;;;222462;1268;24197;-51
2023/06/02 05:09:02;;;;;;;1.70;1.60;;;23.30;53.40;;;;;;222272;1268;25427;-54
2023/06/02 05:14:08;;;;;;;1.70;1.60;;;23.20;53.50;;;;;;222530;1268;22512;-52
2023/06/02 05:19:13;;;;;;;2.10;2.00;;;23.20;53.40;;;;;;222749;1268;23768;-51
2023/06/02 05:24:18;;;;;;;1.60;1.50;;;23.30;53.40;;;;;;222402;1268;22524;-55
2023/06/02 05:29:23;;;;;;;2.10;2.00;;;23.30;53.40;;;;;;222467;1268;22524;-57
2023/06/02 05:34:28;;;;;;;1.80;1.70;;;23.30;53.50;;;;;;222246;1254;22776;-55
2023/06/02 05:39:33;;;;;;;2.00;1.90;;;23.30;53.50;;;;;;222561;1266;24216;-51
2023/06/02 05:44:40;;;;;;;1.70;1.60;;;23.30;53.60;;;;;;222971;1268;25269;-53
2023/06/02 05:49:44;;;;;;;1.40;1.30;;;23.30;53.60;;;;;;222515;1268;22510;-50
2023/06/02 05:54:50;;;;;;;1.90;1.70;;;23.20;53.50;;;;;;222943;1268;25305;-54
2023/06/02 05:59:55;;;;;;;1.50;1.40;;;23.30;53.50;;;;;;222400;1269;22523;-51
2023/06/02 06:05:00;;;;;;;1.80;1.70;;;23.30;53.80;;;;;;222353;1269;22521;-58
2023/06/02 06:10:04;;;;;;;2.40;2.30;;;23.30;53.50;;;;;;222265;1269;22510;-59
2023/06/02 06:15:09;;;;;;;2.20;1.50;;;23.30;54.00;;;;;;222065;1269;24229;-54
2023/06/02 06:20:15;;;;;;;1.80;1.70;;;23.30;53.50;;;;;;222693;1266;25228;-54
2023/06/02 06:25:20;;;;;;;1.80;1.70;;;23.30;53.50;;;;;;222355;1256;23883;-59
2023/06/02 06:30:26;;;;;;;1.40;1.40;;;23.30;53.50;;;;;;222345;1249;24295;-57
2023/06/02 06:35:35;;;;;;;1.50;1.40;;;23.30;53.30;;;;;;222147;1269;24190;-54
2023/06/02 06:40:43;;;;;;;1.70;1.60;;;23.30;53.30;;;;;;222235;1264;25215;-53
2023/06/02 06:45:49;;;;;;;1.80;1.70;;;23.30;53.30;;;;;;222356;1269;24186;-52
2023/06/02 06:50:55;;;;;;;1.60;1.50;;;23.30;53.30;;;;;;222215;1269;23908;-54
2023/06/02 06:56:02;;;;;;;1.60;1.50;;;23.40;53.20;;;;;;222180;1269;24190;-53
2023/06/02 07:01:07;;;;;;;1.50;1.40;;;23.40;53.30;;;;;;222038;1269;24206;-53
2023/06/02 07:06:11;;;;;;;1.60;1.50;;;23.40;53.20;;;;;;222149;1269;25276;-55
2023/06/02 07:11:16;;;;;;;1.60;1.50;;;23.40;53.30;;;;;;222324;1269;22511;-52
2023/06/02 07:16:21;;;;;;;1.40;1.30;;;23.40;53.50;;;;;;222080;1269;22507;-52
2023/06/02 07:21:25;;;;;;;1.70;1.60;;;23.50;53.40;;;;;;222255;1269;22511;-52
2023/06/02 07:26:29;;;;;;;1.80;1.70;;;23.50;53.00;;;;;;222248;1267;23828;-54
2023/06/02 07:31:34;;;;;;;1.60;1.50;;;23.50;52.90;;;;;;222086;1269;25262;-52
2023/06/02 07:36:42;;;;;;;1.60;1.50;;;23.50;53.00;;;;;;222145;1269;24266;-50
2023/06/02 07:41:47;;;;;;;1.80;1.70;;;23.60;52.90;;;;;;222089;1267;22518;-52
2023/06/02 07:46:51;;;;;;;1.70;1.60;;;23.60;52.90;;;;;;222511;1267;22523;-61
2023/06/02 07:51:57;;;;;;;1.60;1.50;;;23.50;53.10;;;;;;222355;1269;23955;-53
2023/06/02 07:57:01;;;;;;;2.00;1.90;;;23.60;52.70;;;;;;222301;1269;23148;-50
2023/06/02 08:02:06;;;;;;;1.20;1.20;;;23.60;52.70;;;;;;222493;1269;25180;-50
2023/06/02 08:07:11;;;;;;;1.60;1.50;;;23.60;52.60;;;;;;222270;1269;24232;-54
2023/06/02 08:12:16;;;;;;;1.70;1.60;;;23.60;52.60;;;;;;222359;1264;22516;-51
2023/06/02 08:17:20;;;;;;;1.60;1.50;;;23.60;52.90;;;;;;222338;1269;22504;-52
2023/06/02 08:22:27;;;;;;;1.90;1.70;;;23.60;52.50;;;;;;222181;1269;24189;-50
2023/06/02 08:27:32;;;;;;;1.40;1.30;;;23.70;52.60;;;;;;222433;1267;22996;-55
2023/06/02 08:32:37;;;;;;;1.80;1.70;;;23.70;52.40;;;;;;222146;1267;24179;-52
2023/06/02 08:37:43;;;;;;;1.50;1.30;;;23.80;52.40;;;;;;222294;1269;24246;-55
2023/06/02 08:42:47;;;;;;;1.60;1.50;;;23.80;52.40;;;;;;222381;1269;22510;-52
2023/06/02 08:47:54;;;;;;;1.30;1.30;;;23.80;52.30;;;;;;222421;1269;23015;-51
2023/06/02 08:53:02;;;;;;;1.70;1.60;;;23.80;52.30;;;;;;222332;1267;22510;-50
2023/06/02 08:58:10;;;;;;;1.40;1.30;;;23.80;52.70;;;;;;222660;1268;22540;-55
2023/06/02 09:03:15;;;;;;;1.70;1.60;;;23.80;52.20;;;;;;222636;1268;26461;-53
2023/06/02 09:08:22;;;;;;;1.60;1.50;;;23.80;52.20;;;;;;222589;1266;25320;-52
2023/06/02 09:13:32;;;;;;;1.50;1.40;;;23.90;52.50;;;;;;222534;1268;22508;-50
2023/06/02 09:18:36;;;;;;;1.60;1.50;;;23.90;52.20;;;;;;222535;1268;24266;-52
2023/06/02 09:23:42;;;;;;;1.80;1.50;;;23.90;52.00;;;;;;222866;1265;22520;-52
2023/06/02 09:29:07;;;;;;;1.40;1.30;;;23.90;52.20;;;;;;222649;1268;25598;-55
2023/06/02 09:34:13;;;;;;;1.50;1.50;;;23.90;52.00;;;;;;222546;1268;22513;-52
2023/06/02 09:39:34;;;;;;;1.30;1.20;;;23.90;52.50;;;;;;222712;1268;24743;-50
2023/06/02 09:44:38;;;;;;;;;;;23.90;52.10;;;;;;222760;1266;25224;-50
2023/06/02 09:49:43;;;;;;;1.50;1.40;;;23.90;52.30;;;;;;222889;1260;22519;-54
2023/06/02 09:54:48;;;;;;;1.50;1.40;;;24.00;52.50;;;;;;222715;1266;22523;-51
2023/06/02 09:59:53;;;;;;;1.50;1.40;;;24.00;52.00;;;;;;222495;1268;24185;-53
2023/06/02 10:04:59;;;;;;;1.60;1.50;;;24.00;52.20;;;;;;222482;1268;22641;-54
2023/06/02 10:10:41;;;;;;;1.60;1.50;;;23.90;52.40;;;;;;222625;1264;22508;-52
2023/06/02 10:16:07;;;;;;;1.40;1.30;;;23.90;52.50;;;;;;222529;1263;24183;-56
2023/06/02 10:21:36;;;;;;;1.40;1.30;;;23.90;52.50;;;;;;222491;1268;23632;-56
2023/06/02 10:27:08;;;;;;;1.50;1.40;;;23.90;52.60;;;;;;222469;1268;22528;-53
2023/06/02 10:32:27;;;;;;;1.80;1.70;;;23.80;52.60;;;;;;222445;1265;22833;-50
2023/06/02 10:37:34;;;;;;;1.60;1.50;;;23.80;52.60;;;;;;222542;1260;22638;-53
2023/06/02 10:43:11;;;;;;;1.40;1.30;;;23.80;52.70;;;;;;222118;1254;22527;-54
2023/06/02 10:48:40;;;;;;;1.40;1.30;;;23.80;53.00;;;;;;222377;1269;22634;-52
2023/06/02 10:54:04;;;;;;;1.50;1.40;;;23.90;52.20;;;;;;222285;1269;25643;-53
2023/06/02 10:59:11;;;;;;;1.50;1.40;;;23.90;52.60;;;;;;222537;1262;22638;-53
2023/06/02 11:04:35;;;;;;;1.40;1.30;;;23.90;52.20;;;;;;222494;1269;22505;-54
2023/06/02 11:09:42;;;;;;;1.50;1.40;;;24.00;52.20;;;;;;222126;1269;23620;-53
2023/06/02 11:15:04;;;;;;;1.30;1.20;;;24.10;52.10;;;;;;222271;1268;23027;-53
2023/06/02 11:20:08;;;;;;;1.50;1.40;;;24.10;52.00;;;;;;222268;1264;22771;-53
2023/06/02 11:25:15;;;;;;;1.50;1.40;;;24.10;52.00;;;;;;222046;1269;22974;-52
2023/06/02 11:30:20;;;;;;;1.60;1.50;;;24.10;52.00;;;;;;222053;1262;25339;-52
2023/06/02 11:35:27;;;;;;;1.40;1.30;;;24.10;51.90;;;;;;222380;1268;24193;-57
2023/06/02 11:40:32;;;;;;;1.40;1.30;;;24.10;52.00;;;;;;222452;1266;24069;-52
2023/06/02 11:45:36;;;;;;;1.50;1.40;;;24.20;51.90;;;;;;222650;1265;23133;-52
2023/06/02 11:50:40;;;;;;;1.40;1.30;;;24.20;51.90;;;;;;222421;1256;24194;-53
2023/06/02 11:55:45;;;;;;;1.40;1.30;;;24.20;51.80;;;;;;222410;1268;24236;-54
2023/06/02 12:00:51;;;;;;;1.50;1.40;;;24.30;51.90;;;;;;222494;1268;24228;-52
2023/06/02 12:05:57;;;;;;;1.50;1.40;;;24.30;51.80;;;;;;222506;1268;26631;-53
2023/06/02 12:11:02;;;;;;;1.70;1.60;;;24.30;51.90;;;;;;222555;1262;22569;-49
2023/06/02 12:16:21;;;;;;;1.90;1.80;;;24.30;51.90;;;;;;222551;1267;22599;-53
2023/06/02 12:21:29;;;;;;;1.50;1.40;;;24.20;51.90;;;;;;222773;1262;25220;-52
2023/06/02 12:26:45;;;;;;;1.50;1.50;;;24.20;52.00;;;;;;222467;1262;23874;-54
2023/06/02 12:32:00;;;;;;;1.50;1.40;;;24.20;51.90;;;;;;222507;1268;22981;-52
2023/06/02 12:37:05;;;;;;;1.70;1.60;;;24.20;52.00;;;;;;222559;1257;23878;-52
2023/06/02 12:42:13;;;;;;;1.70;1.60;;;24.30;52.00;;;;;;222356;1260;22526;-52
2023/06/02 12:47:17;;;;;;;1.40;1.30;;;24.20;51.90;;;;;;222305;1268;25278;-50
2023/06/02 12:52:22;;;;;;;1.20;1.20;;;24.30;52.10;;;;;;222115;1269;24393;-52
2023/06/02 12:57:27;;;;;;;1.50;1.50;;;24.30;51.90;;;;;;222499;1269;23179;-53
2023/06/02 13:02:31;;;;;;;1.20;1.20;;;24.30;51.90;;;;;;222340;1268;22511;-52
2023/06/02 13:07:37;;;;;;;1.30;1.20;;;24.30;52.20;;;;;;222089;1269;24447;-57
2023/06/02 13:12:41;;;;;;;1.20;1.10;;;24.30;51.90;;;;;;222085;1269;22663;-51
2023/06/02 13:17:47;;;;;;;1.30;1.20;;;24.30;52.10;;;;;;222165;1268;22637;-54
2023/06/02 13:22:51;;;;;;;1.50;1.40;;;24.30;51.70;;;;;;222102;1269;22636;-53
2023/06/02 13:27:55;;;;;;;1.20;1.20;;;24.30;51.80;;;;;;222266;1268;24224;-55
2023/06/02 13:32:59;;;;;;;1.40;1.30;;;24.30;51.90;;;;;;222387;1269;22799;-52
2023/06/02 13:38:04;;;;;;;1.40;1.30;;;24.30;52.00;;;;;;222293;1269;25314;-52
2023/06/02 13:43:09;;;;;;;1.50;1.40;;;24.30;52.20;;;;;;222597;1269;24281;-56
2023/06/02 13:48:13;;;;;;;1.50;1.40;;;24.20;52.00;;;;;;222062;1269;22524;-52
2023/06/02 13:53:17;;;;;;;1.30;1.20;;;24.30;52.50;;;;;;222546;1269;22667;-55
2023/06/02 13:58:22;;;;;;;1.20;1.10;;;24.20;52.20;;;;;;222241;1256;24305;-52
2023/06/02 14:03:26;;;;;;;1.70;1.60;;;24.20;52.20;;;;;;222754;1256;25656;-50
2023/06/02 14:08:30;;;;;;;1.40;1.30;;;24.20;52.20;;;;;;222321;1268;24194;-52
2023/06/02 14:13:34;;;;;;;1.60;1.10;;;24.20;52.20;;;;;;222186;1268;183105;-48
2023/06/02 14:18:41;;;;;;;1.10;1.10;;;24.20;52.10;;;;;;222604;1268;22623;-54
2023/06/02 14:23:46;;;;;;;1.20;1.20;;;24.20;52.00;;;;;;222385;1252;24254;-52
2023/06/02 14:28:50;;;;;;;1.00;1.00;;;24.20;52.00;;;;;;222614;1249;24193;-53
2023/06/02 14:33:55;;;;;;;1.50;1.40;;;24.20;52.20;;;;;;222586;1256;24216;-55
2023/06/02 14:38:59;;;;;;;1.40;1.30;;;24.20;52.30;;;;;;222508;1264;22524;-54
2023/06/02 14:44:03;;;;;;;1.40;1.30;;;24.20;52.50;;;;;;222448;1268;23248;-52
2023/06/02 14:49:09;;;;;;;1.60;1.50;;;24.30;52.30;;;;;;222622;1267;22507;-53
2023/06/02 14:54:13;;;;;;;1.70;1.60;;;24.30;52.30;;;;;;222541;1268;22565;-52
2023/06/02 14:59:19;;;;;;;1.40;1.30;;;24.30;52.70;;;;;;222845;1267;24388;-53
2023/06/02 15:04:23;;;;;;;1.10;1.10;;;24.20;52.30;;;;;;222402;1268;24184;-53
2023/06/02 15:09:27;;;;;;;1.30;1.20;;;24.20;52.30;;;;;;222323;1268;22863;-53
2023/06/02 15:14:31;;;;;;;1.10;1.10;;;24.20;52.30;;;;;;222243;1268;22508;-55
2023/06/02 15:19:36;;;;;;;1.00;1.00;;;24.20;52.40;;;;;;222524;1268;24203;-52
2023/06/02 15:24:41;;;;;;;1.40;1.30;;;24.20;52.40;;;;;;222306;1254;24411;-50
2023/06/02 15:29:45;;;;;;;1.40;1.30;;;24.20;52.50;;;;;;222868;1264;22505;-52
2023/06/02 15:34:49;;;;;;;1.00;1.00;;;24.20;52.50;;;;;;222793;1262;25706;-51
2023/06/02 15:39:53;;;;;;;1.50;1.30;;;24.20;52.50;;;;;;222501;1268;22643;-52
2023/06/02 15:44:57;;;;;;;1.50;1.40;;;24.20;52.60;;;;;;222374;1268;22928;-54
2023/06/02 15:50:02;;;;;;;1.20;1.10;;;24.10;52.60;;;;;;222706;1267;25462;-51
2023/06/02 15:55:07;;;;;;;1.20;1.20;;;24.10;52.60;;;;;;222522;1263;23889;-50
2023/06/02 16:00:12;;;;;;;0.80;0.80;;;24.10;52.70;;;;;;222501;1268;25329;-52
2023/06/02 16:05:17;;;;;;;1.10;1.00;;;24.10;52.60;;;;;;222915;1268;22517;-53
2023/06/02 16:10:22;;;;;;;2.00;1.20;;;24.10;52.50;;;;;;222536;1268;22640;-51
2023/06/02 16:15:26;;;;;;;1.60;1.50;;;24.10;52.50;;;;;;222673;1265;25388;-52
2023/06/02 16:20:30;;;;;;;1.30;1.20;;;24.10;52.60;;;;;;222580;1268;24216;-53
2023/06/02 16:25:35;;;;;;;1.10;1.00;;;24.10;52.50;;;;;;222611;1268;22517;-55
2023/06/02 16:30:39;;;;;;;1.10;1.10;;;24.10;52.90;;;;;;222322;1265;22512;-55
2023/06/02 16:35:44;;;;;;;1.10;1.10;;;24.10;52.50;;;;;;222579;1268;22591;-52
2023/06/02 16:40:48;;;;;;;1.30;1.20;;;24.10;53.00;;;;;;222455;1266;22571;-53
2023/06/02 16:45:52;;;;;;;1.20;1.10;;;24.10;52.60;;;;;;222273;1268;24174;-53
2023/06/02 16:50:56;;;;;;;1.30;1.20;;;24.00;52.60;;;;;;222313;1268;24323;-52
2023/06/02 16:56:00;;;;;;;1.40;1.20;;;24.10;52.50;;;;;;222830;1264;23883;-52
2023/06/02 17:01:05;;;;;;;1.20;1.10;;;24.00;52.60;;;;;;222410;1268;24180;-51
2023/06/02 17:06:10;;;;;;;1.20;1.10;;;24.00;52.60;;;;;;222691;1268;24212;-51
2023/06/02 17:11:14;;;;;;;2.30;1.40;;;24.00;52.60;;;;;;222647;1268;22617;-51
2023/06/02 17:16:18;;;;;;;1.10;1.00;;;24.00;53.10;;;;;;222335;1268;22752;-48
2023/06/02 17:21:23;;;;;;;1.40;1.00;;;23.90;52.80;;;;;;222574;1268;25207;-52
2023/06/02 17:26:28;;;;;;;1.50;1.30;;;23.90;52.90;;;;;;222534;1253;24499;-57
2023/06/02 17:31:32;;;;;;;1.20;1.00;;;23.90;52.90;;;;;;222660;1263;23924;-55
2023/06/02 17:36:36;;;;;;;1.50;1.30;;;23.90;53.00;;;;;;222621;1268;22508;-50
2023/06/02 17:41:40;;;;;;;2.00;1.20;;;23.90;53.30;;;;;;222657;1268;25394;-52
2023/06/02 17:46:45;;;;;;;1.50;1.20;;;23.90;53.00;;;;;;222683;1266;24079;-54
2023/06/02 17:51:49;;;;;;;1.40;1.30;;;23.90;52.90;;;;;;222547;1268;22527;-50
2023/06/02 17:56:53;;;;;;;1.00;1.00;;;23.90;53.00;;;;;;222742;1268;25306;-52
2023/06/02 18:01:57;;;;;;;1.50;1.40;;;23.90;53.00;;;;;;222424;1269;22790;-50
2023/06/02 18:07:02;;;;;;;2.40;1.20;;;23.90;53.10;;;;;;222776;1268;22652;-54
2023/06/02 18:12:08;;;;;;;1.10;1.10;;;23.90;53.40;;;;;;222450;1268;24194;-54
2023/06/02 18:17:12;;;;;;;1.60;1.50;;;23.90;53.10;;;;;;222746;1267;22505;-53
2023/06/02 18:22:16;;;;;;;1.50;1.40;;;23.90;53.00;;;;;;222617;1268;24161;-50
2023/06/02 18:27:21;;;;;;;1.30;1.20;;;23.80;53.00;;;;;;222523;1268;25321;-56
2023/06/02 18:32:25;;;;;;;1.30;1.20;;;23.80;53.00;;;;;;222594;1268;22504;-54
2023/06/02 18:37:29;;;;;;;2.30;1.40;;;23.80;53.70;;;;;;222355;1268;22659;-52
2023/06/02 18:42:34;;;;;;;1.20;1.20;;;23.80;53.00;;;;;;222464;1268;22537;-52
2023/06/02 18:47:38;;;;;;;1.20;1.10;;;23.80;53.10;;;;;;222559;1268;23575;-49
2023/06/02 18:52:42;;;;;;;2.80;1.30;;;23.70;53.10;;;;;;222431;1268;24285;-52
2023/06/02 18:57:47;;;;;;;1.10;1.10;;;23.70;53.20;;;;;;222161;1269;22985;-53
2023/06/02 19:02:52;;;;;;;1.30;1.20;;;23.70;53.20;;;;;;222477;1268;22510;-49
2023/06/02 19:07:56;;;;;;;1.50;1.20;;;23.70;52.70;;;;;;222918;1268;25274;-55
2023/06/02 19:13:00;;;;;;;1.30;1.20;;;23.70;53.40;;;;;;222406;1268;25201;-53
2023/06/02 19:18:05;;;;;;;2.80;1.20;;;23.70;53.40;;;;;;222516;1268;23643;-52
2023/06/02 19:23:09;;;;;;;1.00;1.00;;;23.70;53.30;;;;;;222465;1268;22516;-52
2023/06/02 19:28:14;;;;;;;1.00;0.90;;;23.60;53.30;;;;;;222901;1268;23905;-53
2023/06/02 19:33:19;;;;;;;1.10;0.90;;;23.60;53.30;;;;;;222814;1265;24292;-51
2023/06/02 19:38:23;;;;;;;0.90;0.90;;;23.60;53.30;;;;;;222419;1268;25181;-53
2023/06/02 19:43:28;;;;;;;1.10;1.00;;;23.60;53.30;;;;;;222783;1268;24045;-52
2023/06/02 19:48:32;;;;;;;0.80;0.80;;;23.60;53.40;;;;;;222509;1268;23266;-51
2023/06/02 19:53:36;;;;;;;1.10;1.00;;;23.60;53.40;;;;;;222605;1268;24361;-52
2023/06/02 19:58:41;;;;;;;0.80;0.80;;;23.60;53.40;;;;;;222607;1268;22776;-52
2023/06/02 20:03:46;;;;;;;1.10;1.00;;;23.60;53.30;;;;;;222301;1268;24238;-52
2023/06/02 20:08:50;;;;;;;1.50;1.10;;;23.60;53.30;;;;;;222573;1268;23841;-53
2023/06/02 20:13:54;;;;;;;1.00;0.90;;;23.50;53.30;;;;;;222409;1268;22648;-55
2023/06/02 20:18:59;;;;;;;1.00;0.90;;;23.50;53.30;;;;;;222511;1268;22524;-54
2023/06/02 20:24:04;;;;;;;1.00;1.00;;;23.50;53.30;;;;;;222333;1268;24173;-52
2023/06/02 20:29:08;;;;;;;1.90;1.10;;;23.50;53.20;;;;;;222536;1268;22501;-53
2023/06/02 20:34:13;;;;;;;1.30;1.20;;;23.50;53.20;;;;;;222408;1264;22513;-55
2023/06/02 20:39:20;;;;;;;1.30;1.10;;;23.50;53.50;;;;;;222387;1268;22512;-52
2023/06/02 20:44:24;;;;;;;1.20;1.10;;;23.40;53.20;;;;;;222478;1268;22515;-53
2023/06/02 20:49:29;;;;;;;1.20;1.10;;;23.40;53.50;;;;;;222314;1268;22527;-53
2023/06/02 20:54:33;;;;;;;0.90;0.90;;;23.40;53.30;;;;;;222601;1268;23749;-58
2023/06/02 20:59:37;;;;;;;1.20;1.00;;;23.40;53.10;;;;;;222646;1268;24048;-51
2023/06/02 21:04:44;;;;;;;0.90;0.90;;;23.40;53.30;;;;;;222429;1268;22509;-52
2023/06/02 21:09:48;;;;;;;1.20;1.20;;;23.40;53.30;;;;;;222628;1267;22772;-49
2023/06/02 21:14:53;;;;;;;1.40;1.00;;;23.40;53.00;;;;;;222617;1268;22630;-52
2023/06/02 21:19:57;;;;;;;0.70;0.70;;;23.40;53.00;;;;;;222151;1268;23274;-52
2023/06/02 21:25:03;;;;;;;0.70;0.70;;;23.50;52.80;;;;;;222731;1266;24238;-51
2023/06/02 21:30:10;;;;;;;1.10;1.10;;;23.60;52.70;;;;;;222737;1268;25393;-53
2023/06/02 21:35:16;;;;;;;1.10;1.00;;;23.50;52.70;;;;;;222580;1265;22521;-55
2023/06/02 21:40:20;;;;;;;1.00;0.80;;;23.60;53.00;;;;;;222564;1245;22522;-54
2023/06/02 21:45:24;;;;;;;1.00;0.90;;;23.50;52.70;;;;;;222537;1268;22512;-51
2023/06/02 21:50:29;;;;;;;0.70;0.70;;;23.50;52.80;;;;;;222562;1267;25594;-54
2023/06/02 21:55:33;;;;;;;1.40;1.00;;;23.40;52.80;;;;;;222644;1268;24047;-53
2023/06/02 22:00:38;;;;;;;0.80;0.80;;;23.40;52.80;;;;;;222467;1268;22760;-53
2023/06/02 22:05:42;;;;;;;1.00;1.00;;;23.30;52.90;;;;;;222248;1268;24388;-57
2023/06/02 22:10:46;;;;;;;0.90;0.90;;;23.30;52.90;;;;;;222344;1256;23040;-52
2023/06/02 22:15:50;;;;;;;0.90;0.90;;;23.30;52.80;;;;;;222810;1268;22521;-53
2023/06/02 22:20:54;;;;;;;1.60;0.90;;;23.30;53.20;;;;;;222475;1268;22517;-51
2023/06/02 22:25:58;;;;;;;1.10;1.10;;;23.30;52.90;;;;;;222521;1268;22583;-52
2023/06/02 22:31:02;;;;;;;0.80;0.80;;;23.30;53.00;;;;;;222309;1262;22646;-55
2023/06/02 22:36:09;;;;;;;1.20;1.10;;;23.20;53.00;;;;;;222535;1268;22509;-51
2023/06/02 22:41:13;;;;;;;0.90;0.90;;;23.30;53.00;;;;;;222630;1268;22862;-52
2023/06/02 22:46:17;;;;;;;0.90;0.80;;;23.10;53.10;;;;;;222446;1268;22506;-52
2023/06/02 22:51:21;;;;;;;1.00;1.00;;;23.10;53.00;;;;;;222472;1268;22505;-52
2023/06/02 22:56:25;;;;;;;1.10;1.00;;;23.10;53.10;;;;;;222225;1268;22848;-53
2023/06/02 23:01:29;;;;;;;0.70;0.70;;;23.10;53.40;;;;;;222548;1263;22638;-54
2023/06/02 23:06:33;;;;;;;1.20;1.10;;;23.10;53.20;;;;;;222146;1268;23236;-52
2023/06/02 23:11:38;;;;;;;1.10;1.00;;;23.10;53.10;;;;;;222474;1268;24404;-52
2023/06/02 23:16:42;;;;;;;0.80;0.80;;;23.00;53.70;;;;;;222510;1268;24071;-53
2023/06/02 23:21:46;;;;;;;1.00;0.90;;;23.10;53.10;;;;;;222359;1268;24228;-57
2023/06/02 23:26:50;;;;;;;0.70;0.70;;;23.00;53.10;;;;;;222382;1268;22517;-53
2023/06/02 23:31:54;;;;;;;1.00;1.00;;;23.00;53.10;;;;;;222256;1268;23888;-53
2023/06/02 23:36:58;;;;;;;1.00;0.90;;;23.00;53.10;;;;;;222633;1268;22523;-52
2023/06/02 23:42:03;;;;;;;0.80;0.80;;;23.00;53.10;;;;;;222587;1268;22572;-52
2023/06/02 23:47:07;;;;;;;1.10;1.00;;;22.90;53.10;;;;;;222635;1268;24194;-52
2023/06/02 23:52:12;;;;;;;0.70;0.70;;;23.00;53.20;;;;;;222623;1268;22689;-53
2023/06/02 23:57:17;;;;;;;0.80;0.80;;;22.90;53.10;;;;;;222594;1257;24364;-52
